sensor_id;sensor_type;location;lat;lon;timestamp;temperature;humidity
65989;HTU21D;53592;51.402;6.054;2023-02-26T00:01:15;2.12;70.64
65989;HTU21D;53592;51.402;6.054;2023-02-26T00:03:41;2.13;70.76
65989;HTU21D;53592;51.402;6.054;2023-02-26T00:06:07;2.14;70.69
65989;HTU21D;53592;51.402;6.054;2023-02-26T00:08:32;2.11;70.92
65989;HTU21D;53592;51.402;6.054;2023-02-26T00:10:58;2.07;70.84
65989;HTU21D;53592;51.402;6.054;2023-02-26T00:13:27;2.02;71.08
65989;HTU21D;53592;51.402;6.054;2023-02-26T00:15:58;2.00;71.22
65989;HTU21D;53592;51.402;6.054;2023-02-26T00:18:24;1.98;71.35
65989;HTU21D;53592;51.402;6.054;2023-02-26T00:20:50;1.97;71.48
65989;HTU21D;53592;51.402;6.054;2023-02-26T00:23:16;1.97;71.78
65989;HTU21D;53592;51.402;6.054;2023-02-26T00:25:43;1.98;71.65
65989;HTU21D;53592;51.402;6.054;2023-02-26T00:28:09;1.99;71.59
65989;HTU21D;53592;51.402;6.054;2023-02-26T00:30:35;2.00;71.58
65989;HTU21D;53592;51.402;6.054;2023-02-26T00:33:01;1.99;71.65
65989;HTU21D;53592;51.402;6.054;2023-02-26T00:35:27;1.99;71.72
65989;HTU21D;53592;51.402;6.054;2023-02-26T00:40:25;1.94;72.13
65989;HTU21D;53592;51.402;6.054;2023-02-26T00:42:53;1.90;72.42
65989;HTU21D;53592;51.402;6.054;2023-02-26T00:45:19;1.87;72.80
65989;HTU21D;53592;51.402;6.054;2023-02-26T00:48:02;1.90;72.98
65989;HTU21D;53592;51.402;6.054;2023-02-26T00:50:31;1.93;73.03
65989;HTU21D;53592;51.402;6.054;2023-02-26T00:55:41;1.95;73.07
65989;HTU21D;53592;51.402;6.054;2023-02-26T00:58:06;1.94;73.13
65989;HTU21D;53592;51.402;6.054;2023-02-26T01:00:32;1.97;73.00
65989;HTU21D;53592;51.402;6.054;2023-02-26T01:02:58;1.99;72.97
65989;HTU21D;53592;51.402;6.054;2023-02-26T01:05:25;2.01;73.09
65989;HTU21D;53592;51.402;6.054;2023-02-26T01:10:22;2.02;73.36
65989;HTU21D;53592;51.402;6.054;2023-02-26T01:12:48;2.01;73.28
65989;HTU21D;53592;51.402;6.054;2023-02-26T01:15:14;2.01;73.55
65989;HTU21D;53592;51.402;6.054;2023-02-26T01:17:55;2.00;73.69
65989;HTU21D;53592;51.402;6.054;2023-02-26T01:20:29;2.05;73.72
65989;HTU21D;53592;51.402;6.054;2023-02-26T01:22:59;2.08;73.66
65989;HTU21D;53592;51.402;6.054;2023-02-26T01:25:49;2.10;73.54
65989;HTU21D;53592;51.402;6.054;2023-02-26T01:28:15;2.11;73.15
65989;HTU21D;53592;51.402;6.054;2023-02-26T01:30:41;2.09;73.25
65989;HTU21D;53592;51.402;6.054;2023-02-26T01:33:16;2.07;73.39
65989;HTU21D;53592;51.402;6.054;2023-02-26T01:36:00;2.03;73.64
65989;HTU21D;53592;51.402;6.054;2023-02-26T01:39:47;2.01;73.96
65989;HTU21D;53592;51.402;6.054;2023-02-26T01:41:51;2.05;73.80
65989;HTU21D;53592;51.402;6.054;2023-02-26T01:49:32;2.10;73.60
65989;HTU21D;53592;51.402;6.054;2023-02-26T01:52:01;2.09;73.44
65989;HTU21D;53592;51.402;6.054;2023-02-26T01:54:33;2.08;73.29
65989;HTU21D;53592;51.402;6.054;2023-02-26T01:57:05;2.11;73.40
65989;HTU21D;53592;51.402;6.054;2023-02-26T01:59:36;2.12;73.21
65989;HTU21D;53592;51.402;6.054;2023-02-26T02:02:06;2.11;73.08
65989;HTU21D;53592;51.402;6.054;2023-02-26T02:04:32;2.11;73.06
65989;HTU21D;53592;51.402;6.054;2023-02-26T02:06:58;2.12;72.87
65989;HTU21D;53592;51.402;6.054;2023-02-26T02:09:24;2.09;72.89
65989;HTU21D;53592;51.402;6.054;2023-02-26T02:12:34;2.09;72.83
65989;HTU21D;53592;51.402;6.054;2023-02-26T02:15:13;2.07;72.67
65989;HTU21D;53592;51.402;6.054;2023-02-26T02:17:51;2.00;72.63
65989;HTU21D;53592;51.402;6.054;2023-02-26T02:23:38;1.91;73.05
65989;HTU21D;53592;51.402;6.054;2023-02-26T02:32:05;1.83;73.37
65989;HTU21D;53592;51.402;6.054;2023-02-26T02:34:52;1.81;73.30
65989;HTU21D;53592;51.402;6.054;2023-02-26T02:37:42;1.76;73.40
65989;HTU21D;53592;51.402;6.054;2023-02-26T02:40:24;1.75;73.77
65989;HTU21D;53592;51.402;6.054;2023-02-26T02:43:03;1.75;73.83
65989;HTU21D;53592;51.402;6.054;2023-02-26T02:45:53;1.71;74.19
65989;HTU21D;53592;51.402;6.054;2023-02-26T02:48:28;1.71;74.32
65989;HTU21D;53592;51.402;6.054;2023-02-26T02:51:00;1.67;74.45
65989;HTU21D;53592;51.402;6.054;2023-02-26T02:53:41;1.64;74.73
65989;HTU21D;53592;51.402;6.054;2023-02-26T02:58:51;1.58;75.07
65989;HTU21D;53592;51.402;6.054;2023-02-26T03:01:22;1.56;75.28
65989;HTU21D;53592;51.402;6.054;2023-02-26T03:04:13;1.58;75.21
65989;HTU21D;53592;51.402;6.054;2023-02-26T03:06:40;1.52;75.30
65989;HTU21D;53592;51.402;6.054;2023-02-26T03:09:08;1.51;75.51
65989;HTU21D;53592;51.402;6.054;2023-02-26T03:11:35;1.50;75.53
65989;HTU21D;53592;51.402;6.054;2023-02-26T03:14:02;1.51;75.54
65989;HTU21D;53592;51.402;6.054;2023-02-26T03:16:42;1.50;75.62
65989;HTU21D;53592;51.402;6.054;2023-02-26T03:22:28;1.50;75.52
65989;HTU21D;53592;51.402;6.054;2023-02-26T03:30:44;1.45;75.57
65989;HTU21D;53592;51.402;6.054;2023-02-26T03:36:13;1.41;75.47
65989;HTU21D;53592;51.402;6.054;2023-02-26T03:38:56;1.40;75.42
65989;HTU21D;53592;51.402;6.054;2023-02-26T03:41:33;1.32;75.53
65989;HTU21D;53592;51.402;6.054;2023-02-26T03:44:09;1.29;75.61
65989;HTU21D;53592;51.402;6.054;2023-02-26T03:46:43;1.26;75.54
65989;HTU21D;53592;51.402;6.054;2023-02-26T03:49:23;1.26;75.54
65989;HTU21D;53592;51.402;6.054;2023-02-26T03:51:51;1.25;75.45
65989;HTU21D;53592;51.402;6.054;2023-02-26T03:54:26;1.20;75.48
65989;HTU21D;53592;51.402;6.054;2023-02-26T03:56:53;1.17;75.49
65989;HTU21D;53592;51.402;6.054;2023-02-26T03:59:19;1.18;75.57
65989;HTU21D;53592;51.402;6.054;2023-02-26T04:02:01;1.17;75.50
65989;HTU21D;53592;51.402;6.054;2023-02-26T04:04:41;1.18;75.35
65989;HTU21D;53592;51.402;6.054;2023-02-26T04:07:11;1.17;75.14
65989;HTU21D;53592;51.402;6.054;2023-02-26T04:09:41;1.13;75.05
65989;HTU21D;53592;51.402;6.054;2023-02-26T04:12:07;1.06;74.99
65989;HTU21D;53592;51.402;6.054;2023-02-26T04:14:32;1.05;75.01
65989;HTU21D;53592;51.402;6.054;2023-02-26T04:16:58;1.03;74.99
65989;HTU21D;53592;51.402;6.054;2023-02-26T04:19:23;1.01;74.95
65989;HTU21D;53592;51.402;6.054;2023-02-26T04:21:49;1.01;74.97
65989;HTU21D;53592;51.402;6.054;2023-02-26T04:24:15;1.03;74.76
65989;HTU21D;53592;51.402;6.054;2023-02-26T04:26:41;0.95;74.67
65989;HTU21D;53592;51.402;6.054;2023-02-26T04:29:06;0.94;74.83
65989;HTU21D;53592;51.402;6.054;2023-02-26T04:31:32;0.97;74.71
65989;HTU21D;53592;51.402;6.054;2023-02-26T04:33:57;0.98;74.61
65989;HTU21D;53592;51.402;6.054;2023-02-26T04:36:23;1.03;74.58
65989;HTU21D;53592;51.402;6.054;2023-02-26T04:38:48;1.04;74.25
65989;HTU21D;53592;51.402;6.054;2023-02-26T04:41:14;1.02;74.01
65989;HTU21D;53592;51.402;6.054;2023-02-26T04:43:39;0.98;73.99
65989;HTU21D;53592;51.402;6.054;2023-02-26T04:46:05;0.97;73.85
65989;HTU21D;53592;51.402;6.054;2023-02-26T04:48:30;0.97;73.90
65989;HTU21D;53592;51.402;6.054;2023-02-26T04:50:56;0.99;73.78
65989;HTU21D;53592;51.402;6.054;2023-02-26T04:53:21;0.98;73.57
65989;HTU21D;53592;51.402;6.054;2023-02-26T04:55:48;0.94;73.39
65989;HTU21D;53592;51.402;6.054;2023-02-26T04:58:14;0.92;73.54
65989;HTU21D;53592;51.402;6.054;2023-02-26T05:00:40;0.93;73.55
65989;HTU21D;53592;51.402;6.054;2023-02-26T05:03:05;0.93;73.56
65989;HTU21D;53592;51.402;6.054;2023-02-26T05:05:31;0.96;73.45
65989;HTU21D;53592;51.402;6.054;2023-02-26T05:07:57;0.95;73.25
65989;HTU21D;53592;51.402;6.054;2023-02-26T05:10:24;0.92;73.17
65989;HTU21D;53592;51.402;6.054;2023-02-26T05:12:50;0.87;73.16
65989;HTU21D;53592;51.402;6.054;2023-02-26T05:15:15;0.86;73.11
65989;HTU21D;53592;51.402;6.054;2023-02-26T05:17:41;0.80;73.11
65989;HTU21D;53592;51.402;6.054;2023-02-26T05:20:07;0.75;73.31
65989;HTU21D;53592;51.402;6.054;2023-02-26T05:22:37;0.74;73.34
65989;HTU21D;53592;51.402;6.054;2023-02-26T05:25:03;0.75;73.37
65989;HTU21D;53592;51.402;6.054;2023-02-26T05:27:29;0.77;73.41
65989;HTU21D;53592;51.402;6.054;2023-02-26T05:29:55;0.73;73.24
65989;HTU21D;53592;51.402;6.054;2023-02-26T05:32:20;0.72;73.42
65989;HTU21D;53592;51.402;6.054;2023-02-26T05:34:46;0.72;73.41
65989;HTU21D;53592;51.402;6.054;2023-02-26T05:37:11;0.69;73.47
65989;HTU21D;53592;51.402;6.054;2023-02-26T05:39:37;0.67;73.61
65989;HTU21D;53592;51.402;6.054;2023-02-26T05:42:03;0.66;73.61
65989;HTU21D;53592;51.402;6.054;2023-02-26T05:44:28;0.65;73.79
65989;HTU21D;53592;51.402;6.054;2023-02-26T05:46:54;0.69;73.82
65989;HTU21D;53592;51.402;6.054;2023-02-26T05:49:19;0.66;73.57
65989;HTU21D;53592;51.402;6.054;2023-02-26T05:51:45;0.64;73.56
65989;HTU21D;53592;51.402;6.054;2023-02-26T05:54:10;0.63;73.65
65989;HTU21D;53592;51.402;6.054;2023-02-26T05:56:36;0.61;73.61
65989;HTU21D;53592;51.402;6.054;2023-02-26T05:59:02;0.58;73.60
65989;HTU21D;53592;51.402;6.054;2023-02-26T06:01:28;0.55;73.57
65989;HTU21D;53592;51.402;6.054;2023-02-26T06:03:53;0.53;73.73
65989;HTU21D;53592;51.402;6.054;2023-02-26T06:06:19;0.51;73.78
65989;HTU21D;53592;51.402;6.054;2023-02-26T06:08:46;0.53;73.82
65989;HTU21D;53592;51.402;6.054;2023-02-26T06:11:12;0.53;73.77
65989;HTU21D;53592;51.402;6.054;2023-02-26T06:13:38;0.53;73.76
65989;HTU21D;53592;51.402;6.054;2023-02-26T06:16:04;0.54;73.77
65989;HTU21D;53592;51.402;6.054;2023-02-26T06:18:30;0.55;73.70
65989;HTU21D;53592;51.402;6.054;2023-02-26T06:20:56;0.54;73.52
65989;HTU21D;53592;51.402;6.054;2023-02-26T06:23:22;0.50;73.64
65989;HTU21D;53592;51.402;6.054;2023-02-26T06:25:50;0.50;73.63
65989;HTU21D;53592;51.402;6.054;2023-02-26T06:28:16;0.51;73.47
65989;HTU21D;53592;51.402;6.054;2023-02-26T06:30:41;0.45;73.46
65989;HTU21D;53592;51.402;6.054;2023-02-26T06:33:07;0.43;73.63
65989;HTU21D;53592;51.402;6.054;2023-02-26T06:35:32;0.45;73.62
65989;HTU21D;53592;51.402;6.054;2023-02-26T06:37:58;0.45;73.66
65989;HTU21D;53592;51.402;6.054;2023-02-26T06:40:23;0.43;73.56
65989;HTU21D;53592;51.402;6.054;2023-02-26T06:42:49;0.38;73.44
65989;HTU21D;53592;51.402;6.054;2023-02-26T06:45:14;0.35;73.79
65989;HTU21D;53592;51.402;6.054;2023-02-26T06:47:40;0.37;73.83
65989;HTU21D;53592;51.402;6.054;2023-02-26T06:50:06;0.37;73.90
65989;HTU21D;53592;51.402;6.054;2023-02-26T06:52:32;0.38;73.70
65989;HTU21D;53592;51.402;6.054;2023-02-26T06:55:04;0.32;73.54
65989;HTU21D;53592;51.402;6.054;2023-02-26T06:57:29;0.30;73.91
65989;HTU21D;53592;51.402;6.054;2023-02-26T06:59:55;0.30;73.90
65989;HTU21D;53592;51.402;6.054;2023-02-26T07:02:22;0.33;73.85
65989;HTU21D;53592;51.402;6.054;2023-02-26T07:04:48;0.29;73.93
65989;HTU21D;53592;51.402;6.054;2023-02-26T07:07:14;0.29;73.92
65989;HTU21D;53592;51.402;6.054;2023-02-26T07:09:40;0.31;73.62
65989;HTU21D;53592;51.402;6.054;2023-02-26T07:12:06;0.28;73.68
65989;HTU21D;53592;51.402;6.054;2023-02-26T07:14:32;0.28;73.80
65989;HTU21D;53592;51.402;6.054;2023-02-26T07:16:59;0.32;74.47
65989;HTU21D;53592;51.402;6.054;2023-02-26T07:19:25;0.46;74.90
65989;HTU21D;53592;51.402;6.054;2023-02-26T07:21:50;0.61;74.83
65989;HTU21D;53592;51.402;6.054;2023-02-26T07:24:16;0.78;74.25
65989;HTU21D;53592;51.402;6.054;2023-02-26T07:26:41;0.96;73.90
65989;HTU21D;53592;51.402;6.054;2023-02-26T07:29:07;1.18;73.50
65989;HTU21D;53592;51.402;6.054;2023-02-26T07:31:32;1.35;73.22
65989;HTU21D;53592;51.402;6.054;2023-02-26T07:33:58;1.54;72.29
65989;HTU21D;53592;51.402;6.054;2023-02-26T07:36:24;1.75;71.53
65989;HTU21D;53592;51.402;6.054;2023-02-26T07:38:49;1.88;71.49
65989;HTU21D;53592;51.402;6.054;2023-02-26T07:41:15;2.00;70.03
65989;HTU21D;53592;51.402;6.054;2023-02-26T07:43:40;2.11;70.25
65989;HTU21D;53592;51.402;6.054;2023-02-26T07:46:07;2.29;69.92
65989;HTU21D;53592;51.402;6.054;2023-02-26T07:48:33;2.40;68.89
65989;HTU21D;53592;51.402;6.054;2023-02-26T07:50:58;2.52;68.73
65989;HTU21D;53592;51.402;6.054;2023-02-26T07:53:24;2.66;68.31
65989;HTU21D;53592;51.402;6.054;2023-02-26T07:55:50;2.83;67.59
65989;HTU21D;53592;51.402;6.054;2023-02-26T07:58:16;2.93;66.49
65989;HTU21D;53592;51.402;6.054;2023-02-26T08:00:41;2.99;66.15
65989;HTU21D;53592;51.402;6.054;2023-02-26T08:03:07;2.99;65.69
65989;HTU21D;53592;51.402;6.054;2023-02-26T08:05:32;2.95;64.56
65989;HTU21D;53592;51.402;6.054;2023-02-26T08:07:58;2.84;64.88
65989;HTU21D;53592;51.402;6.054;2023-02-26T08:10:26;2.73;65.32
65989;HTU21D;53592;51.402;6.054;2023-02-26T08:12:52;2.71;66.06
65989;HTU21D;53592;51.402;6.054;2023-02-26T08:15:17;2.73;65.91
65989;HTU21D;53592;51.402;6.054;2023-02-26T08:17:43;2.69;65.91
65989;HTU21D;53592;51.402;6.054;2023-02-26T08:20:09;2.66;65.69
65989;HTU21D;53592;51.402;6.054;2023-02-26T08:22:36;2.64;65.96
65989;HTU21D;53592;51.402;6.054;2023-02-26T08:25:02;2.60;66.35
65989;HTU21D;53592;51.402;6.054;2023-02-26T08:27:28;2.72;66.28
65989;HTU21D;53592;51.402;6.054;2023-02-26T08:29:53;2.65;66.31
65989;HTU21D;53592;51.402;6.054;2023-02-26T08:32:19;2.64;66.30
65989;HTU21D;53592;51.402;6.054;2023-02-26T08:34:45;2.64;66.51
65989;HTU21D;53592;51.402;6.054;2023-02-26T08:37:11;2.71;66.20
65989;HTU21D;53592;51.402;6.054;2023-02-26T08:39:38;2.72;66.22
65989;HTU21D;53592;51.402;6.054;2023-02-26T08:42:05;2.82;66.40
65989;HTU21D;53592;51.402;6.054;2023-02-26T08:44:32;2.91;65.91
65989;HTU21D;53592;51.402;6.054;2023-02-26T08:46:57;3.04;64.56
65989;HTU21D;53592;51.402;6.054;2023-02-26T08:49:23;3.09;65.50
65989;HTU21D;53592;51.402;6.054;2023-02-26T08:51:48;3.33;65.08
65989;HTU21D;53592;51.402;6.054;2023-02-26T08:54:14;3.58;65.33
65989;HTU21D;53592;51.402;6.054;2023-02-26T08:56:39;3.78;64.46
65989;HTU21D;53592;51.402;6.054;2023-02-26T08:59:05;3.92;63.24
65989;HTU21D;53592;51.402;6.054;2023-02-26T09:01:31;4.15;63.00
65989;HTU21D;53592;51.402;6.054;2023-02-26T09:03:56;4.35;62.35
65989;HTU21D;53592;51.402;6.054;2023-02-26T09:06:22;4.57;61.66
65989;HTU21D;53592;51.402;6.054;2023-02-26T09:08:47;4.75;60.06
65989;HTU21D;53592;51.402;6.054;2023-02-26T09:11:13;4.88;59.17
65989;HTU21D;53592;51.402;6.054;2023-02-26T09:13:39;4.91;59.80
65989;HTU21D;53592;51.402;6.054;2023-02-26T09:16:05;5.09;59.28
65989;HTU21D;53592;51.402;6.054;2023-02-26T09:18:30;5.32;58.19
65989;HTU21D;53592;51.402;6.054;2023-02-26T09:20:56;5.45;57.11
65989;HTU21D;53592;51.402;6.054;2023-02-26T09:23:21;5.57;56.79
65989;HTU21D;53592;51.402;6.054;2023-02-26T09:25:54;5.78;55.77
65989;HTU21D;53592;51.402;6.054;2023-02-26T09:28:21;5.86;54.64
65989;HTU21D;53592;51.402;6.054;2023-02-26T09:30:51;5.84;55.09
65989;HTU21D;53592;51.402;6.054;2023-02-26T09:33:17;5.97;54.71
65989;HTU21D;53592;51.402;6.054;2023-02-26T09:35:43;6.24;53.59
65989;HTU21D;53592;51.402;6.054;2023-02-26T09:38:08;6.37;53.41
65989;HTU21D;53592;51.402;6.054;2023-02-26T09:41:05;6.50;52.57
65989;HTU21D;53592;51.402;6.054;2023-02-26T09:52:25;6.90;51.19
65989;HTU21D;53592;51.402;6.054;2023-02-26T09:54:59;6.87;50.54
65989;HTU21D;53592;51.402;6.054;2023-02-26T09:57:34;6.94;50.34
65989;HTU21D;53592;51.402;6.054;2023-02-26T10:00:06;6.99;50.05
65989;HTU21D;53592;51.402;6.054;2023-02-26T10:09:00;6.95;50.08
65989;HTU21D;53592;51.402;6.054;2023-02-26T10:14:38;7.10;50.27
65989;HTU21D;53592;51.402;6.054;2023-02-26T10:19:59;7.17;48.94
65989;HTU21D;53592;51.402;6.054;2023-02-26T10:22:39;7.64;50.82
65989;HTU21D;53592;51.402;6.054;2023-02-26T10:30:55;8.77;48.05
65989;HTU21D;53592;51.402;6.054;2023-02-26T10:34:07;9.04;50.25
65989;HTU21D;53592;51.402;6.054;2023-02-26T10:39:33;9.37;46.37
65989;HTU21D;53592;51.402;6.054;2023-02-26T10:42:09;9.44;49.34
65989;HTU21D;53592;51.402;6.054;2023-02-26T10:44:54;9.69;47.54
65989;HTU21D;53592;51.402;6.054;2023-02-26T10:47:47;9.76;44.44
65989;HTU21D;53592;51.402;6.054;2023-02-26T10:50:17;9.68;45.26
65989;HTU21D;53592;51.402;6.054;2023-02-26T10:52:46;9.69;44.40
65989;HTU21D;53592;51.402;6.054;2023-02-26T10:55:24;9.66;47.91
65989;HTU21D;53592;51.402;6.054;2023-02-26T10:58:13;9.83;42.76
65989;HTU21D;53592;51.402;6.054;2023-02-26T11:00:44;9.82;46.03
65989;HTU21D;53592;51.402;6.054;2023-02-26T11:03:18;9.98;45.29
65989;HTU21D;53592;51.402;6.054;2023-02-26T11:05:44;9.67;43.70
65989;HTU21D;53592;51.402;6.054;2023-02-26T11:08:18;9.59;42.77
65989;HTU21D;53592;51.402;6.054;2023-02-26T11:10:52;9.34;42.58
65989;HTU21D;53592;51.402;6.054;2023-02-26T11:13:20;8.82;42.29
65989;HTU21D;53592;51.402;6.054;2023-02-26T11:15:49;8.21;43.21
65989;HTU21D;53592;51.402;6.054;2023-02-26T11:18:30;7.97;45.12
65989;HTU21D;53592;51.402;6.054;2023-02-26T11:20:59;8.11;46.08
65989;HTU21D;53592;51.402;6.054;2023-02-26T11:23:29;8.04;45.38
65989;HTU21D;53592;51.402;6.054;2023-02-26T11:26:04;7.90;45.42
65989;HTU21D;53592;51.402;6.054;2023-02-26T11:28:35;7.82;47.47
65989;HTU21D;53592;51.402;6.054;2023-02-26T11:31:05;7.73;45.83
65989;HTU21D;53592;51.402;6.054;2023-02-26T11:33:43;7.57;45.00
65989;HTU21D;53592;51.402;6.054;2023-02-26T11:36:14;7.45;44.30
65989;HTU21D;53592;51.402;6.054;2023-02-26T11:38:45;7.14;45.06
65989;HTU21D;53592;51.402;6.054;2023-02-26T11:41:12;7.13;47.06
65989;HTU21D;53592;51.402;6.054;2023-02-26T11:43:45;7.27;45.70
65989;HTU21D;53592;51.402;6.054;2023-02-26T11:46:12;7.22;46.26
65989;HTU21D;53592;51.402;6.054;2023-02-26T11:48:47;7.41;46.49
65989;HTU21D;53592;51.402;6.054;2023-02-26T11:51:24;7.57;47.24
65989;HTU21D;53592;51.402;6.054;2023-02-26T11:53:55;7.76;47.96
65989;HTU21D;53592;51.402;6.054;2023-02-26T11:56:41;8.08;46.47
65989;HTU21D;53592;51.402;6.054;2023-02-26T11:59:19;8.31;44.71
65989;HTU21D;53592;51.402;6.054;2023-02-26T12:01:46;8.53;42.55
65989;HTU21D;53592;51.402;6.054;2023-02-26T12:04:14;8.28;40.78
65989;HTU21D;53592;51.402;6.054;2023-02-26T12:06:50;8.31;43.15
65989;HTU21D;53592;51.402;6.054;2023-02-26T12:09:17;8.31;41.88
65989;HTU21D;53592;51.402;6.054;2023-02-26T12:14:36;8.35;43.99
65989;HTU21D;53592;51.402;6.054;2023-02-26T12:20:28;8.62;45.17
65989;HTU21D;53592;51.402;6.054;2023-02-26T12:23:27;8.71;43.75
65989;HTU21D;53592;51.402;6.054;2023-02-26T12:31:52;8.20;40.75
65989;HTU21D;53592;51.402;6.054;2023-02-26T12:37:25;8.08;42.55
65989;HTU21D;53592;51.402;6.054;2023-02-26T12:40:02;7.99;41.15
65989;HTU21D;53592;51.402;6.054;2023-02-26T12:48:57;7.59;43.14
65989;HTU21D;53592;51.402;6.054;2023-02-26T12:51:36;7.46;43.05
65989;HTU21D;53592;51.402;6.054;2023-02-26T12:57:25;7.16;43.86
65989;HTU21D;53592;51.402;6.054;2023-02-26T13:10:23;7.24;43.45
65989;HTU21D;53592;51.402;6.054;2023-02-26T13:18:42;7.31;41.58
65989;HTU21D;53592;51.402;6.054;2023-02-26T13:21:45;7.22;42.07
65989;HTU21D;53592;51.402;6.054;2023-02-26T13:24:45;7.24;41.88
65989;HTU21D;53592;51.402;6.054;2023-02-26T13:27:14;7.25;43.26
65989;HTU21D;53592;51.402;6.054;2023-02-26T13:29:48;7.34;42.84
65989;HTU21D;53592;51.402;6.054;2023-02-26T13:32:21;7.39;42.29
65989;HTU21D;53592;51.402;6.054;2023-02-26T13:37:24;7.39;42.82
65989;HTU21D;53592;51.402;6.054;2023-02-26T13:44:58;7.33;43.68
65989;HTU21D;53592;51.402;6.054;2023-02-26T13:52:34;7.40;43.77
65989;HTU21D;53592;51.402;6.054;2023-02-26T13:55:02;7.39;43.46
65989;HTU21D;53592;51.402;6.054;2023-02-26T13:57:42;7.41;43.64
65989;HTU21D;53592;51.402;6.054;2023-02-26T14:08:21;7.39;40.88
65989;HTU21D;53592;51.402;6.054;2023-02-26T14:10:58;7.20;42.05
65989;HTU21D;53592;51.402;6.054;2023-02-26T14:13:38;7.18;41.67
65989;HTU21D;53592;51.402;6.054;2023-02-26T14:16:27;7.04;42.13
65989;HTU21D;53592;51.402;6.054;2023-02-26T14:19:18;7.07;43.15
65989;HTU21D;53592;51.402;6.054;2023-02-26T14:21:54;7.11;43.54
65989;HTU21D;53592;51.402;6.054;2023-02-26T14:24:45;7.08;42.65
65989;HTU21D;53592;51.402;6.054;2023-02-26T14:30:04;7.02;42.36
65989;HTU21D;53592;51.402;6.054;2023-02-26T14:32:51;6.98;42.52
65989;HTU21D;53592;51.402;6.054;2023-02-26T14:35:23;6.96;42.50
65989;HTU21D;53592;51.402;6.054;2023-02-26T14:38:10;6.87;41.08
65989;HTU21D;53592;51.402;6.054;2023-02-26T14:40:49;6.96;41.54
65989;HTU21D;53592;51.402;6.054;2023-02-26T14:46:06;6.79;40.52
65989;HTU21D;53592;51.402;6.054;2023-02-26T14:48:32;6.74;40.43
65989;HTU21D;53592;51.402;6.054;2023-02-26T14:51:28;6.60;41.21
65989;HTU21D;53592;51.402;6.054;2023-02-26T14:54:33;6.54;43.08
65989;HTU21D;53592;51.402;6.054;2023-02-26T14:57:06;6.66;43.22
65989;HTU21D;53592;51.402;6.054;2023-02-26T15:00:06;6.66;43.15
65989;HTU21D;53592;51.402;6.054;2023-02-26T15:22:27;6.59;44.77
65989;HTU21D;53592;51.402;6.054;2023-02-26T15:24:58;6.55;45.09
65989;HTU21D;53592;51.402;6.054;2023-02-26T15:27:29;6.56;45.96
65989;HTU21D;53592;51.402;6.054;2023-02-26T15:29:56;6.53;44.66
65989;HTU21D;53592;51.402;6.054;2023-02-26T15:32:23;6.44;44.89
65989;HTU21D;53592;51.402;6.054;2023-02-26T15:35:19;6.38;45.40
65989;HTU21D;53592;51.402;6.054;2023-02-26T15:37:54;6.37;45.37
65989;HTU21D;53592;51.402;6.054;2023-02-26T15:40:23;6.39;45.52
65989;HTU21D;53592;51.402;6.054;2023-02-26T15:42:53;6.37;45.91
65989;HTU21D;53592;51.402;6.054;2023-02-26T15:48:13;6.37;46.39
65989;HTU21D;53592;51.402;6.054;2023-02-26T15:50:42;6.33;44.93
65989;HTU21D;53592;51.402;6.054;2023-02-26T15:53:17;6.29;45.89
65989;HTU21D;53592;51.402;6.054;2023-02-26T15:55:51;6.31;46.35
65989;HTU21D;53592;51.402;6.054;2023-02-26T16:00:59;6.29;46.58
65989;HTU21D;53592;51.402;6.054;2023-02-26T16:03:27;6.26;46.73
65989;HTU21D;53592;51.402;6.054;2023-02-26T16:05:56;6.24;45.44
65989;HTU21D;53592;51.402;6.054;2023-02-26T16:08:22;6.17;46.70
65989;HTU21D;53592;51.402;6.054;2023-02-26T16:10:50;6.14;46.77
65989;HTU21D;53592;51.402;6.054;2023-02-26T16:13:25;6.11;46.92
65989;HTU21D;53592;51.402;6.054;2023-02-26T16:15:52;6.08;47.35
65989;HTU21D;53592;51.402;6.054;2023-02-26T16:18:22;6.10;48.03
65989;HTU21D;53592;51.402;6.054;2023-02-26T16:20:53;6.14;48.44
65989;HTU21D;53592;51.402;6.054;2023-02-26T16:23:28;6.09;48.40
65989;HTU21D;53592;51.402;6.054;2023-02-26T16:26:01;6.07;48.41
65989;HTU21D;53592;51.402;6.054;2023-02-26T16:28:37;5.99;48.60
65989;HTU21D;53592;51.402;6.054;2023-02-26T16:31:21;5.96;48.95
65989;HTU21D;53592;51.402;6.054;2023-02-26T16:36:19;5.96;49.86
65989;HTU21D;53592;51.402;6.054;2023-02-26T16:38:56;5.93;49.16
65989;HTU21D;53592;51.402;6.054;2023-02-26T16:41:24;5.84;49.07
65989;HTU21D;53592;51.402;6.054;2023-02-26T16:43:53;5.76;49.40
65989;HTU21D;53592;51.402;6.054;2023-02-26T16:46:40;5.68;48.94
65989;HTU21D;53592;51.402;6.054;2023-02-26T16:49:30;5.64;49.68
65989;HTU21D;53592;51.402;6.054;2023-02-26T16:51:59;5.63;49.31
65989;HTU21D;53592;51.402;6.054;2023-02-26T16:54:31;5.59;49.63
65989;HTU21D;53592;51.402;6.054;2023-02-26T16:57:06;5.54;49.84
65989;HTU21D;53592;51.402;6.054;2023-02-26T16:59:35;5.50;50.22
65989;HTU21D;53592;51.402;6.054;2023-02-26T17:02:17;5.48;50.18
65989;HTU21D;53592;51.402;6.054;2023-02-26T17:04:47;5.41;50.15
65989;HTU21D;53592;51.402;6.054;2023-02-26T17:07:21;5.38;50.55
65989;HTU21D;53592;51.402;6.054;2023-02-26T17:09:50;5.35;50.76
65989;HTU21D;53592;51.402;6.054;2023-02-26T17:12:43;5.33;50.71
65989;HTU21D;53592;51.402;6.054;2023-02-26T17:15:18;5.31;51.04
65989;HTU21D;53592;51.402;6.054;2023-02-26T17:17:46;5.28;50.95
65989;HTU21D;53592;51.402;6.054;2023-02-26T17:20:13;5.24;51.28
65989;HTU21D;53592;51.402;6.054;2023-02-26T17:22:42;5.18;51.30
65989;HTU21D;53592;51.402;6.054;2023-02-26T17:25:14;5.12;51.59
65989;HTU21D;53592;51.402;6.054;2023-02-26T17:27:39;5.09;52.06
65989;HTU21D;53592;51.402;6.054;2023-02-26T17:30:06;5.10;52.21
65989;HTU21D;53592;51.402;6.054;2023-02-26T17:32:35;5.10;52.49
65989;HTU21D;53592;51.402;6.054;2023-02-26T17:35:00;5.06;52.42
65989;HTU21D;53592;51.402;6.054;2023-02-26T17:37:32;5.02;52.63
65989;HTU21D;53592;51.402;6.054;2023-02-26T17:39:58;5.00;53.01
65989;HTU21D;53592;51.402;6.054;2023-02-26T17:42:24;4.98;52.96
65989;HTU21D;53592;51.402;6.054;2023-02-26T17:44:51;4.97;52.79
65989;HTU21D;53592;51.402;6.054;2023-02-26T17:47:19;4.93;53.20
65989;HTU21D;53592;51.402;6.054;2023-02-26T17:49:46;4.90;53.16
65989;HTU21D;53592;51.402;6.054;2023-02-26T17:52:12;4.88;53.39
65989;HTU21D;53592;51.402;6.054;2023-02-26T17:54:38;4.83;53.54
65989;HTU21D;53592;51.402;6.054;2023-02-26T17:57:04;4.80;53.83
65989;HTU21D;53592;51.402;6.054;2023-02-26T17:59:31;4.74;54.04
65989;HTU21D;53592;51.402;6.054;2023-02-26T18:01:56;4.71;54.03
65989;HTU21D;53592;51.402;6.054;2023-02-26T18:04:22;4.64;54.16
65989;HTU21D;53592;51.402;6.054;2023-02-26T18:06:48;4.59;54.41
65989;HTU21D;53592;51.402;6.054;2023-02-26T18:09:14;4.53;54.94
65989;HTU21D;53592;51.402;6.054;2023-02-26T18:11:39;4.47;54.97
65989;HTU21D;53592;51.402;6.054;2023-02-26T18:14:06;4.42;55.13
65989;HTU21D;53592;51.402;6.054;2023-02-26T18:16:41;4.41;55.61
65989;HTU21D;53592;51.402;6.054;2023-02-26T18:19:12;4.43;55.95
65989;HTU21D;53592;51.402;6.054;2023-02-26T18:21:38;4.50;55.87
65989;HTU21D;53592;51.402;6.054;2023-02-26T18:24:03;4.51;55.84
65989;HTU21D;53592;51.402;6.054;2023-02-26T18:26:31;4.52;55.73
65989;HTU21D;53592;51.402;6.054;2023-02-26T18:28:57;4.52;55.78
65989;HTU21D;53592;51.402;6.054;2023-02-26T18:31:24;4.49;55.81
65989;HTU21D;53592;51.402;6.054;2023-02-26T18:33:57;4.45;56.03